Time;durP1;ratioP1;P1;durP2;ratioP2;P2;SDS_P1;SDS_P2;PMS_P1;PMS_P2;Temp;Humidity;BMP_temperature;BMP_pressure;BME280_temperature;BME280_humidity;BME280_pressure;Samples;Min_cycle;Max_cycle;Signal;HPM_P1;HPM_P2
2021/01/05 00:02:08;;;;;;;;;;;;;;;20.76;43.83;100306.38;5056243;28;851;-49
2021/01/05 00:04:33;;;;;;;;;;;;;;;20.84;43.83;100300.09;5056002;28;832;-50
2021/01/05 00:07:02;;;;;;;;;;;;;;;20.75;43.91;100296.44;5056146;28;1007;-50
2021/01/05 00:09:27;;;;;;;;;;;;;;;20.92;43.63;100295.78;5056136;28;895;-48
2021/01/05 00:11:56;;;;;;;;;;;;;;;20.90;43.38;100293.34;5038048;28;1976;-54
2021/01/05 00:14:21;;;;;;;;;;;;;;;20.98;43.25;100280.69;5066955;28;1700;-50
2021/01/05 00:16:47;;;;;;;;;;;;;;;21.07;43.10;100270.50;5070197;28;752;-48
2021/01/05 00:19:12;;;;;;;;;;;;;;;21.00;43.41;100264.63;5075997;28;776;-50
2021/01/05 00:21:37;;;;;;;;;;;;;;;21.02;43.42;100252.09;5071997;28;962;-47
2021/01/05 00:24:04;;;;;;;;;;;;;;;21.07;43.05;100237.34;5056002;28;791;-50
2021/01/05 00:26:30;;;;;;;;;;;;;;;20.98;43.22;100245.56;5055974;28;520;-46
2021/01/05 00:28:55;;;;;;;;;;;;;;;21.04;43.18;100229.66;5056153;28;858;-48
2021/01/05 00:31:21;;;;;;;;;;;;;;;20.98;43.50;100214.34;5058082;28;1906;-51
2021/01/05 00:33:46;;;;;;;;;;;;;;;21.12;43.16;100200.44;5060148;28;760;-46
2021/01/05 00:36:11;;;;;;;;;;;;;;;21.13;42.90;100202.06;5059552;28;947;-49
2021/01/05 00:38:37;;;;;;;;;;;;;;;21.11;43.01;100182.22;5060021;28;867;-49
2021/01/05 00:41:02;;;;;;;;;;;;;;;21.10;43.06;100169.53;5059632;28;772;-49
2021/01/05 00:43:28;;;;;;;;;;;;;;;;;;5059752;28;851;-49
2021/01/05 00:45:53;;;;;;;;;;;;;;;21.15;43.14;100172.97;5059877;28;796;-53
2021/01/05 00:48:18;;;;;;;;;;;;;;;21.11;43.16;100172.00;5059683;28;1215;-51
2021/01/05 00:50:44;;;;;;;;;;;;;;;21.12;42.91;100181.09;5079503;28;1087;-48
2021/01/05 00:53:10;;;;;;;;;;;;;;;21.24;42.96;100172.16;5062947;28;1905;-50
2021/01/05 00:55:35;;;;;;;;;;;;;;;21.20;42.72;100169.25;5041663;28;1130;-48
2021/01/05 00:58:01;;;;;;;;;;;;;;;21.00;43.60;100188.03;5041919;28;1000;-48
2021/01/05 01:00:28;;;;;;;;;;;;;;;21.12;43.23;100190.19;5041841;28;1085;-49
2021/01/05 01:03:03;;;;;;;;;;;;;;;21.17;43.01;100195.59;5041527;28;1292;-49
2021/01/05 01:05:34;;;;;;;;;;;;;;;21.22;42.99;100186.31;5059356;28;764;-52
2021/01/05 01:08:00;;;;;;;;;;;;;;;21.16;42.94;100196.72;5057090;28;1241;-51
2021/01/05 01:10:26;;;;;;;;;;;;;;;21.30;42.81;100195.78;5061385;28;1264;-54
2021/01/05 01:12:52;;;;;;;;;;;;;;;21.31;42.88;100189.13;5079189;28;1980;-54
2021/01/05 01:15:18;;;;;;;;;;;;;;;21.16;43.21;100202.22;5061727;28;1438;-51
2021/01/05 01:17:44;;;;;;;;;;;;;;;21.32;42.80;100187.97;5061242;28;1233;-53
2021/01/05 01:20:13;;;;;;;;;;;;;;;21.25;42.70;100184.88;5061613;28;1182;-53
2021/01/05 01:22:39;;;;;;;;;;;;;;;21.24;42.90;100174.94;5066422;28;1014;-52
2021/01/05 01:25:10;;;;;;;;;;;;;;;21.23;42.88;100165.03;5058531;28;823;-53
2021/01/05 01:27:39;;;;;;;;;;;;;;;21.33;42.57;100161.97;5041601;28;1348;-53
2021/01/05 01:30:05;;;;;;;;;;;;;;;21.28;42.89;100142.75;5041519;28;931;-53
2021/01/05 01:32:35;;;;;;;;;;;;;;;21.33;42.85;100146.19;5040873;28;1918;-51
2021/01/05 01:35:01;;;;;;;;;;;;;;;21.29;42.65;100144.38;5041119;28;1357;-53
2021/01/05 01:37:26;;;;;;;;;;;;;;;21.34;42.76;100153.34;5058725;28;971;-53
2021/01/05 01:39:57;;;;;;;;;;;;;;;21.26;42.83;100148.59;5058322;28;796;-52
2021/01/05 01:42:27;;;;;;;;;;;;;;;21.50;42.46;100128.00;5040503;28;1309;-53
2021/01/05 01:44:53;;;;;;;;;;;;;;;21.47;42.36;100126.69;5041026;28;1320;-51
2021/01/05 01:47:31;;;;;;;;;;;;;;;21.42;42.56;100107.50;5050193;28;1223;-52
2021/01/05 01:50:14;;;;;;;;;;;;;;;21.37;42.84;100132.53;5045032;28;1100;-49
2021/01/05 01:52:44;;;;;;;;;;;;;;;21.53;42.22;100122.69;5047682;28;1986;-49
2021/01/05 01:55:28;;;;;;;;;;;;;;;21.52;42.23;100132.09;5040500;28;1119;-52
2021/01/05 01:58:06;;;;;;;;;;;;;;;21.31;42.42;100142.13;5040969;28;1170;-50
2021/01/05 02:00:41;;;;;;;;;;;;;;;21.22;42.88;100153.13;5024269;28;1127;-50
2021/01/05 02:03:06;;;;;;;;;;;;;;;21.32;42.92;100165.84;5040451;28;819;-49
2021/01/05 02:05:47;;;;;;;;;;;;;;;21.43;42.57;100189.31;5058250;28;772;-49
2021/01/05 02:08:32;;;;;;;;;;;;;;;21.48;42.62;100186.41;5024144;28;1213;-46
2021/01/05 02:11:16;;;;;;;;;;;;;;;21.37;42.58;100190.59;5040392;28;1219;-51
2021/01/05 02:13:51;;;;;;;;;;;;;;;21.43;42.55;100186.53;5040338;28;1155;-51
2021/01/05 02:16:20;;;;;;;;;;;;;;;21.46;42.47;100166.56;5040654;28;1167;-50
2021/01/05 02:19:06;;;;;;;;;;;;;;;21.50;42.39;100141.81;5040484;28;1243;-51
2021/01/05 02:21:33;;;;;;;;;;;;;;;21.52;42.37;100145.94;5056622;28;955;-49
2021/01/05 02:24:03;;;;;;;;;;;;;;;21.56;42.51;100142.53;5023826;28;1193;-56
2021/01/05 02:26:44;;;;;;;;;;;;;;;21.50;42.30;100139.06;5040405;28;1155;-56
2021/01/05 02:29:12;;;;;;;;;;;;;;;21.45;42.48;100142.00;5040336;28;1174;-56
2021/01/05 02:31:42;;;;;;;;;;;;;;;21.46;42.47;100127.84;5023813;28;2336;-57
2021/01/05 02:34:13;;;;;;;;;;;;;;;21.42;42.58;100121.31;5024041;28;1110;-54
2021/01/05 02:36:44;;;;;;;;;;;;;;;21.34;42.97;100106.34;5023458;28;1284;-54
2021/01/05 02:39:49;;;;;;;;;;;;;;;21.46;42.50;100099.34;5042503;28;630;-52
2021/01/05 02:42:39;;;;;;;;;;;;;;;21.61;42.14;100121.03;5042606;28;610;-52
2021/01/05 02:45:25;;;;;;;;;;;;;;;21.61;42.05;100117.47;5057716;28;617;-55
2021/01/05 02:48:29;;;;;;;;;;;;;;;21.49;42.45;100118.91;5058365;28;1144;-52
2021/01/05 02:51:31;;;;;;;;;;;;;;;21.50;42.46;100105.88;5071855;28;1910;-51
2021/01/05 02:54:21;;;;;;;;;;;;;;;21.47;42.43;100101.78;5057274;28;609;-53
2021/01/05 02:57:05;;;;;;;;;;;;;;;21.37;43.01;100096.59;5057485;28;654;-51
2021/01/05 02:59:52;;;;;;;;;;;;;;;21.39;42.86;100096.25;5057461;28;661;-54
2021/01/05 03:02:46;;;;;;;;;;;;;;;21.35;43.03;100088.59;5037249;28;1041;-55
2021/01/05 03:05:30;;;;;;;;;;;;;;;21.41;42.78;100085.69;5057292;28;622;-56
2021/01/05 03:08:14;;;;;;;;;;;;;;;21.43;42.68;100089.75;5056456;28;931;-52
2021/01/05 03:11:02;;;;;;;;;;;;;;;21.52;42.37;100089.81;5042084;28;665;-52
2021/01/05 03:14:02;;;;;;;;;;;;;;;21.45;42.77;100087.50;5057074;28;676;-53
2021/01/05 03:16:49;;;;;;;;;;;;;;;21.53;42.48;100091.41;5041500;28;633;-52
2021/01/05 03:19:39;;;;;;;;;;;;;;;21.60;42.30;100090.94;5042125;28;645;-55
2021/01/05 03:22:25;;;;;;;;;;;;;;;21.43;42.75;100106.34;5056704;28;939;-52
2021/01/05 03:25:27;;;;;;;;;;;;;;;21.53;42.48;100100.53;5023450;28;1300;-53
2021/01/05 03:28:12;;;;;;;;;;;;;;;21.46;42.67;100097.41;5040537;28;1023;-55
2021/01/05 03:31:03;;;;;;;;;;;;;;;21.66;42.37;100097.97;5041240;28;701;-53
2021/01/05 03:33:48;;;;;;;;;;;;;;;21.51;42.54;100097.25;5056816;28;626;-57
2021/01/05 03:36:32;;;;;;;;;;;;;;;21.59;42.39;100097.59;5041442;28;975;-55
2021/01/05 03:39:16;;;;;;;;;;;;;;;21.59;42.43;100103.97;5056286;28;609;-53
2021/01/05 03:42:00;;;;;;;;;;;;;;;21.56;42.33;100110.16;5057083;28;638;-46
2021/01/05 03:44:44;;;;;;;;;;;;;;;21.57;42.41;100110.97;5056392;28;645;-56
2021/01/05 03:47:28;;;;;;;;;;;;;;;21.58;42.60;100112.59;5067081;28;1091;-53
2021/01/05 03:50:12;;;;;;;;;;;;;;;21.50;42.60;100106.69;5076423;28;1107;-52
2021/01/05 03:52:55;;;;;;;;;;;;;;;21.59;42.41;100103.13;5061038;28;1914;-55
2021/01/05 03:55:39;;;;;;;;;;;;;;;21.58;42.62;100102.34;5056480;28;606;-54
2021/01/05 03:58:23;;;;;;;;;;;;;;;21.66;42.43;100097.97;5056386;28;598;-56
2021/01/05 04:01:07;;;;;;;;;;;;;;;21.44;42.35;100099.69;5056211;28;598;-51
2021/01/05 04:03:32;;;;;;;;;;;;;;;21.51;42.61;100122.13;5056446;28;855;-55
2021/01/05 04:05:58;;;;;;;;;;;;;;;21.51;42.50;100111.06;5055884;28;772;-51
2021/01/05 04:08:23;;;;;;;;;;;;;;;21.59;42.49;100105.91;5055737;28;959;-52
2021/01/05 04:10:49;;;;;;;;;;;;;;;21.58;42.31;100113.41;5056232;28;752;-52
2021/01/05 04:13:14;;;;;;;;;;;;;;;21.68;42.25;100109.50;5056206;28;1922;-47
2021/01/05 04:15:40;;;;;;;;;;;;;;;21.68;42.20;100112.28;5055934;28;827;-48
2021/01/05 04:18:05;;;;;;;;;;;;;;;21.42;42.68;100109.44;5056173;28;744;-46
2021/01/05 04:20:31;;;;;;;;;;;;;;;21.60;42.47;100104.78;5038484;28;757;-56
2021/01/05 04:22:56;;;;;;;;;;;;;;;21.61;42.39;100111.94;5055672;28;1085;-47
2021/01/05 04:25:22;;;;;;;;;;;;;;;21.61;42.42;100109.19;5056057;28;855;-48
2021/01/05 04:27:48;;;;;;;;;;;;;;;21.68;42.19;100109.50;5056150;28;846;-49
2021/01/05 04:30:16;;;;;;;;;;;;;;;21.63;42.32;100107.72;5056173;28;764;-47
2021/01/05 04:32:42;;;;;;;;;;;;;;;21.47;42.76;100117.59;5056181;28;1922;-54
2021/01/05 04:35:07;;;;;;;;;;;;;;;21.24;43.11;100103.88;5056006;28;840;-54
2021/01/05 04:37:33;;;;;;;;;;;;;;;20.99;43.71;100122.03;5055502;28;1065;-46
2021/01/05 04:39:58;;;;;;;;;;;;;;;20.82;44.26;100128.28;5055896;28;768;-54
2021/01/05 04:42:35;;;;;;;;;;;;;;;20.80;44.44;100134.13;5056118;28;851;-50
2021/01/05 04:45:02;;;;;;;;;;;;;;;20.85;44.36;100124.88;5038022;28;752;-47
2021/01/05 04:47:46;;;;;;;;;;;;;;;20.87;44.24;100141.16;5048918;28;1156;-54
2021/01/05 04:50:13;;;;;;;;;;;;;;;20.93;44.03;100139.84;5058181;28;1040;-49
2021/01/05 04:52:43;;;;;;;;;;;;;;;20.97;43.68;100149.16;5044352;28;1988;-57
2021/01/05 04:55:15;;;;;;;;;;;;;;;20.87;43.95;100144.72;5038220;28;864;-53
2021/01/05 04:57:41;;;;;;;;;;;;;;;21.05;43.72;100144.81;5037862;28;894;-63
2021/01/05 05:00:10;;;;;;;;;;;;;;;21.17;43.26;100143.06;5036970;28;815;-50
2021/01/05 05:02:40;;;;;;;;;;;;;;;20.91;43.92;100131.09;5055921;28;859;-57
2021/01/05 05:05:24;;;;;;;;;;;;;;;20.99;43.67;100130.31;5056119;28;852;-54
2021/01/05 05:07:52;;;;;;;;;;;;;;;20.76;44.46;100129.53;5054999;28;995;-50
2021/01/05 05:10:20;;;;;;;;;;;;;;;20.79;44.24;100128.91;5055851;28;835;-59
2021/01/05 05:13:00;;;;;;;;;;;;;;;20.68;44.58;100128.38;5038466;28;1989;-46
2021/01/05 05:15:46;;;;;;;;;;;;;;;20.65;44.55;100131.72;5055701;28;720;-49
2021/01/05 05:18:20;;;;;;;;;;;;;;;20.60;44.46;100137.41;5057295;28;823;-48
2021/01/05 05:21:04;;;;;;;;;;;;;;;20.55;44.84;100129.25;5041385;28;860;-45
2021/01/05 05:23:30;;;;;;;;;;;;;;;20.26;45.53;100127.75;5058540;28;978;-46
2021/01/05 05:26:05;;;;;;;;;;;;;;;20.56;44.77;100137.22;5059256;28;875;-45
2021/01/05 05:28:33;;;;;;;;;;;;;;;20.77;44.09;100128.41;5059021;28;732;-46
2021/01/05 05:30:59;;;;;;;;;;;;;;;20.60;44.45;100137.41;5058853;28;787;-54
2021/01/05 05:33:29;;;;;;;;;;;;;;;20.41;45.02;100132.09;5041291;28;1914;-53
2021/01/05 05:36:10;;;;;;;;;;;;;;;20.48;44.75;100137.97;5039530;28;898;-54
2021/01/05 05:38:46;;;;;;;;;;;;;;;20.51;44.64;100132.66;5059006;28;824;-56
2021/01/05 05:41:21;;;;;;;;;;;;;;;20.67;44.20;100143.28;5041021;28;1264;-47
2021/01/05 05:44:05;;;;;;;;;;;;;;;20.67;44.12;100146.06;5058339;28;823;-49
2021/01/05 05:46:32;;;;;;;;;;;;;;;20.65;44.23;100151.91;5061680;28;1202;-46
2021/01/05 05:48:59;;;;;;;;;;;;;;;20.48;44.61;100143.50;5078651;28;791;-48
2021/01/05 05:51:30;;;;;;;;;;;;;;;20.33;45.03;100156.56;5075605;28;1979;-48
2021/01/05 05:53:56;;;;;;;;;;;;;;;20.37;45.09;100169.75;5058658;28;827;-44
2021/01/05 05:56:41;;;;;;;;;;;;;;;20.34;44.91;100163.72;5058367;28;763;-45
2021/01/05 05:59:07;;;;;;;;;;;;;;;20.44;44.77;100165.41;5054174;28;1438;-54
2021/01/05 06:01:36;;;;;;;;;;;;;;;20.46;44.84;100174.19;5053383;28;859;-53
2021/01/05 06:04:01;;;;;;;;;;;;;;;20.52;44.39;100161.91;5077408;28;969;-45
2021/01/05 06:06:27;;;;;;;;;;;;;;;20.47;44.52;100173.06;5057421;28;963;-46
2021/01/05 06:08:52;;;;;;;;;;;;;;;20.52;44.60;100183.16;5062076;28;962;-44
2021/01/05 06:11:17;;;;;;;;;;;;;;;20.50;44.73;100186.25;5077938;28;1981;-45
2021/01/05 06:13:46;;;;;;;;;;;;;;;20.52;44.52;100181.25;5077832;28;792;-45
2021/01/05 06:16:12;;;;;;;;;;;;;;;20.38;45.01;100190.72;5078061;28;736;-47
2021/01/05 06:18:37;;;;;;;;;;;;;;;20.43;44.75;100193.34;5078018;28;764;-45
2021/01/05 06:21:03;;;;;;;;;;;;;;;20.55;44.45;100198.28;5077727;28;759;-48
2021/01/05 06:23:28;;;;;;;;;;;;;;;20.56;44.47;100200.75;5058165;28;974;-44
2021/01/05 06:25:56;;;;;;;;;;;;;;;20.49;44.55;100203.13;5057783;28;827;-47
2021/01/05 06:28:22;;;;;;;;;;;;;;;20.54;44.58;100203.00;5039634;28;792;-58
2021/01/05 06:30:47;;;;;;;;;;;;;;;20.57;44.38;100199.63;5066143;28;930;-47
2021/01/05 06:33:13;;;;;;;;;;;;;;;20.58;44.29;100200.41;5077744;28;1981;-54
2021/01/05 06:35:38;;;;;;;;;;;;;;;20.45;44.65;100207.66;5060078;28;732;-46
2021/01/05 06:38:04;;;;;;;;;;;;;;;20.38;44.68;100213.59;5061578;28;989;-48
2021/01/05 06:40:29;;;;;;;;;;;;;;;20.52;44.60;100205.25;5057719;28;859;-46
2021/01/05 06:42:54;;;;;;;;;;;;;;;20.52;44.53;100217.16;5057634;28;835;-46
2021/01/05 06:45:22;;;;;;;;;;;;;;;20.63;44.37;100211.34;5057046;28;866;-45
2021/01/05 06:47:47;;;;;;;;;;;;;;;20.74;43.94;100204.47;5070937;28;1143;-46
2021/01/05 06:50:13;;;;;;;;;;;;;;;20.52;44.58;100206.09;5072145;28;1015;-48
2021/01/05 06:52:38;;;;;;;;;;;;;;;20.59;44.44;100204.81;5063305;28;1910;-46
2021/01/05 06:55:04;;;;;;;;;;;;;;;20.57;44.47;100212.63;5038887;28;868;-46
2021/01/05 06:57:29;;;;;;;;;;;;;;;20.71;44.18;100216.16;5057171;28;708;-46
2021/01/05 06:59:55;;;;;;;;;;;;;;;20.37;44.95;100209.22;5056532;28;883;-46
2021/01/05 07:02:20;;;;;;;;;;;;;;;20.55;44.38;100203.81;5057352;28;776;-51
2021/01/05 07:04:46;;;;;;;;;;;;;;;20.59;44.31;100196.53;5057254;28;799;-45
2021/01/05 07:07:11;;;;;;;;;;;;;;;20.72;44.04;100203.13;5056608;28;1021;-44
2021/01/05 07:09:37;;;;;;;;;;;;;;;20.67;44.18;100198.53;5057410;28;788;-46
2021/01/05 07:12:03;;;;;;;;;;;;;;;20.76;43.86;100209.66;5056709;28;1898;-44
2021/01/05 07:14:28;;;;;;;;;;;;;;;20.67;44.08;100206.84;5056954;28;838;-45
2021/01/05 07:16:54;;;;;;;;;;;;;;;20.70;44.04;100216.47;5057145;28;796;-47
2021/01/05 07:19:19;;;;;;;;;;;;;;;20.63;44.01;100233.44;5056836;28;811;-51
2021/01/05 07:21:44;;;;;;;;;;;;;;;20.51;44.42;100226.53;5056394;28;1010;-51
2021/01/05 07:24:10;;;;;;;;;;;;;;;20.41;44.75;100223.22;5056734;28;831;-54
2021/01/05 07:26:36;;;;;;;;;;;;;;;20.55;44.55;100221.19;5071947;28;876;-49
2021/01/05 07:29:02;;;;;;;;;;;;;;;20.64;44.20;100235.09;5076448;28;855;-46
2021/01/05 07:31:28;;;;;;;;;;;;;;;20.40;44.81;100233.44;5076652;28;1906;-47
2021/01/05 07:33:53;;;;;;;;;;;;;;;20.46;44.54;100226.66;5076789;28;803;-45
2021/01/05 07:36:25;;;;;;;;;;;;;;;20.62;44.24;100231.81;5074679;28;939;-50
2021/01/05 07:38:51;;;;;;;;;;;;;;;20.75;44.08;100239.25;5039098;28;891;-47
2021/01/05 07:41:16;;;;;;;;;;;;;;;20.65;44.14;100228.41;5056148;28;815;-47
2021/01/05 07:43:42;;;;;;;;;;;;;;;20.83;43.92;100243.19;5056126;28;832;-44
2021/01/05 07:46:07;;;;;;;;;;;;;;;20.88;43.75;100245.03;5056257;28;823;-47
2021/01/05 07:48:33;;;;;;;;;;;;;;;20.86;43.84;100242.59;5076139;28;1166;-45
2021/01/05 07:50:58;;;;;;;;;;;;;;;20.91;43.73;100247.16;5076026;28;1063;-50
2021/01/05 07:53:23;;;;;;;;;;;;;;;20.93;43.72;100244.88;5057227;28;1979;-48
2021/01/05 07:55:49;;;;;;;;;;;;;;;20.95;43.44;100245.38;5055739;28;534;-51
2021/01/05 07:58:14;;;;;;;;;;;;;;;20.91;43.79;100245.19;5055988;28;840;-48
2021/01/05 08:00:40;;;;;;;;;;;;;;;21.02;43.56;100249.31;5056462;28;812;-44
2021/01/05 08:03:05;;;;;;;;;;;;;;;21.04;43.21;100251.78;5056394;28;824;-46
2021/01/05 08:05:31;;;;;;;;;;;;;;;21.03;43.54;100250.16;5055360;28;828;-47
2021/01/05 08:07:56;;;;;;;;;;;;;;;21.07;43.39;100253.09;5055486;28;899;-47
2021/01/05 08:10:25;;;;;;;;;;;;;;;21.11;43.33;100254.09;5056166;28;756;-47
2021/01/05 08:12:50;;;;;;;;;;;;;;;21.15;43.30;100260.63;5055989;28;1914;-46
2021/01/05 08:15:16;;;;;;;;;;;;;;;21.15;43.17;100263.38;5056035;28;792;-49
2021/01/05 08:17:42;;;;;;;;;;;;;;;21.15;43.25;100261.44;5072501;28;974;-48
2021/01/05 08:20:07;;;;;;;;;;;;;;;21.05;43.68;100258.13;5075002;28;875;-47
2021/01/05 08:22:33;;;;;;;;;;;;;;;21.23;43.17;100256.28;5064287;28;1013;-48
2021/01/05 08:24:58;;;;;;;;;;;;;;;21.18;43.37;100255.28;5056089;28;844;-48
2021/01/05 08:27:24;;;;;;;;;;;;;;;21.15;43.35;100271.66;5055807;28;764;-47
2021/01/05 08:29:49;;;;;;;;;;;;;;;21.26;42.86;100299.88;5056063;28;748;-48
2021/01/05 08:32:14;;;;;;;;;;;;;;;21.02;43.65;100296.31;5056118;28;1985;-54
2021/01/05 08:34:40;;;;;;;;;;;;;;;21.17;43.26;100308.94;5055220;28;752;-52
2021/01/05 08:37:05;;;;;;;;;;;;;;;21.27;42.86;100307.06;5055731;28;1018;-48
2021/01/05 08:39:31;;;;;;;;;;;;;;;21.37;42.69;100315.06;5055703;28;824;-59
2021/01/05 08:41:56;;;;;;;;;;;;;;;21.36;42.91;100328.09;5055973;28;780;-50
2021/01/05 08:44:22;;;;;;;;;;;;;;;21.42;42.75;100334.31;5055957;28;791;-47
2021/01/05 08:46:47;;;;;;;;;;;;;;;21.45;42.71;100335.63;5061190;28;1143;-48
2021/01/05 08:49:13;;;;;;;;;;;;;;;21.65;42.18;100345.34;5075507;28;1127;-49
2021/01/05 08:51:38;;;;;;;;;;;;;;;21.58;42.29;100344.97;5072494;28;1926;-53
2021/01/05 08:54:03;;;;;;;;;;;;;;;21.59;42.26;100347.44;5059719;28;804;-49
2021/01/05 08:56:29;;;;;;;;;;;;;;;21.60;42.40;100342.69;5041734;28;779;-49
2021/01/05 08:58:55;;;;;;;;;;;;;;;21.36;42.64;100347.44;5067835;28;1101;-47
2021/01/05 09:01:20;;;;;;;;;;;;;;;21.39;42.69;100345.16;5078102;28;883;-48
2021/01/05 09:03:45;;;;;;;;;;;;;;;21.02;43.68;100339.72;5077859;28;1013;-48
2021/01/05 09:06:11;;;;;;;;;;;;;;;21.24;43.16;100346.38;5078409;28;871;-50
2021/01/05 09:08:38;;;;;;;;;;;;;;;21.39;42.61;100353.47;5042049;28;903;-51
2021/01/05 09:11:04;;;;;;;;;;;;;;;21.42;42.78;100358.34;5067987;28;946;-49
2021/01/05 09:13:33;;;;;;;;;;;;;;;21.48;42.30;100351.56;5079108;28;1976;-47
2021/01/05 09:15:58;;;;;;;;;;;;;;;21.47;42.40;100367.34;5079348;28;751;-48
2021/01/05 09:18:24;;;;;;;;;;;;;;;21.49;42.41;100362.31;5069823;28;822;-47
2021/01/05 09:20:50;;;;;;;;;;;;;;;21.46;42.28;100359.34;5059541;28;803;-48
2021/01/05 09:23:15;;;;;;;;;;;;;;;21.59;42.02;100360.44;5058852;28;994;-48
2021/01/05 09:25:41;;;;;;;;;;;;;;;21.65;41.87;100359.16;5062902;28;736;-52
2021/01/05 09:28:06;;;;;;;;;;;;;;;21.72;41.77;100356.75;5079296;28;739;-49
2021/01/05 09:30:32;;;;;;;;;;;;;;;21.76;41.64;100366.06;5079215;28;835;-47
2021/01/05 09:32:58;;;;;;;;;;;;;;;21.43;42.38;100366.34;5078979;28;1906;-47
2021/01/05 09:35:24;;;;;;;;;;;;;;;21.52;42.15;100375.53;5078894;28;787;-47
2021/01/05 09:37:49;;;;;;;;;;;;;;;21.63;42.04;100378.84;5064719;28;955;-50
2021/01/05 09:40:15;;;;;;;;;;;;;;;21.55;42.17;100374.09;5058598;28;848;-47
2021/01/05 09:42:41;;;;;;;;;;;;;;;21.43;42.28;100369.09;5058427;28;764;-47
2021/01/05 09:45:07;;;;;;;;;;;;;;;21.30;42.53;100357.00;5058740;28;763;-49
2021/01/05 09:47:32;;;;;;;;;;;;;;;20.94;43.45;100365.34;5069839;28;1175;-48
2021/01/05 09:50:00;;;;;;;;;;;;;;;21.06;43.24;100368.38;5078339;28;1020;-49
2021/01/05 09:52:26;;;;;;;;;;;;;;;21.19;42.83;100369.44;5067634;28;1906;-51
2021/01/05 09:54:51;;;;;;;;;;;;;;;21.41;42.43;100359.50;5058691;28;803;-57
2021/01/05 09:57:17;;;;;;;;;;;;;;;21.44;42.25;100359.69;5058370;28;756;-51
2021/01/05 09:59:43;;;;;;;;;;;;;;;21.35;42.51;100347.75;5058652;28;764;-46
2021/01/05 10:02:09;;;;;;;;;;;;;;;21.42;42.46;100356.44;5059033;28;778;-47
2021/01/05 10:04:35;;;;;;;;;;;;;;;21.50;42.21;100357.59;5039903;28;840;-55
2021/01/05 10:07:00;;;;;;;;;;;;;;;21.61;41.77;100355.41;5058298;28;970;-53
2021/01/05 10:09:26;;;;;;;;;;;;;;;21.59;42.02;100360.44;5058832;28;800;-48
2021/01/05 10:11:51;;;;;;;;;;;;;;;21.62;41.78;100362.59;5058010;28;1906;-49
2021/01/05 10:14:17;;;;;;;;;;;;;;;21.69;41.86;100366.50;5058097;28;772;-47
2021/01/05 10:16:43;;;;;;;;;;;;;;;21.72;41.60;100365.06;5058332;28;780;-47
2021/01/05 10:19:12;;;;;;;;;;;;;;;21.53;42.04;100363.34;5057946;28;811;-49
2021/01/05 10:21:38;;;;;;;;;;;;;;;21.70;41.61;100370.13;5057686;28;1018;-48
2021/01/05 10:24:04;;;;;;;;;;;;;;;21.72;41.79;100373.34;5058186;28;764;-47
2021/01/05 10:26:30;;;;;;;;;;;;;;;21.39;42.41;100370.06;5057726;28;763;-45
2021/01/05 10:28:56;;;;;;;;;;;;;;;21.02;43.27;100368.19;5058036;28;780;-47
2021/01/05 10:31:21;;;;;;;;;;;;;;;20.99;43.23;100373.53;5058016;28;1902;-46
2021/01/05 10:33:46;;;;;;;;;;;;;;;20.95;43.42;100367.00;5057773;28;831;-46
2021/01/05 10:36:16;;;;;;;;;;;;;;;21.14;42.77;100364.88;5057519;28;931;-48
2021/01/05 10:38:41;;;;;;;;;;;;;;;21.33;42.50;100367.41;5057863;28;796;-47
2021/01/05 10:41:07;;;;;;;;;;;;;;;21.45;42.19;100371.56;5057406;28;760;-48
2021/01/05 10:43:32;;;;;;;;;;;;;;;21.66;41.74;100369.13;5057941;28;760;-47
2021/01/05 10:45:58;;;;;;;;;;;;;;;21.80;41.17;100364.28;5057745;28;803;-46
2021/01/05 10:48:23;;;;;;;;;;;;;;;21.36;42.42;100360.44;5075592;28;1211;-48
2021/01/05 10:50:48;;;;;;;;;;;;;;;21.32;42.54;100359.44;5077423;28;1056;-48
2021/01/05 10:53:14;;;;;;;;;;;;;;;20.84;43.57;100352.59;5059784;28;1988;-47
2021/01/05 10:55:39;;;;;;;;;;;;;;;21.11;42.77;100362.75;5057089;28;787;-45
2021/01/05 10:58:05;;;;;;;;;;;;;;;21.44;42.11;100367.97;5057541;28;784;-48
2021/01/05 11:00:30;;;;;;;;;;;;;;;21.61;41.96;100367.28;5057509;28;824;-48
2021/01/05 11:02:55;;;;;;;;;;;;;;;21.50;41.86;100377.78;5056763;28;760;-48
2021/01/05 11:05:21;;;;;;;;;;;;;;;21.76;41.44;100379.88;5057412;28;763;-46
2021/01/05 11:07:50;;;;;;;;;;;;;;;21.36;42.22;100377.88;5057072;28;959;-46
2021/01/05 11:10:15;;;;;;;;;;;;;;;21.16;42.87;100376.41;5056728;28;796;-47
2021/01/05 11:12:41;;;;;;;;;;;;;;;20.84;43.44;100372.75;5057246;28;1918;-48
2021/01/05 11:15:06;;;;;;;;;;;;;;;21.23;42.81;100367.69;5056253;28;815;-50
2021/01/05 11:17:32;;;;;;;;;;;;;;;21.33;42.46;100372.13;5056535;28;748;-46
2021/01/05 11:19:57;;;;;;;;;;;;;;;21.57;41.69;100371.81;5057147;28;764;-45
2021/01/05 11:22:23;;;;;;;;;;;;;;;21.67;41.41;100379.84;5056794;28;1077;-46
2021/01/05 11:24:48;;;;;;;;;;;;;;;21.75;41.35;100381.03;5056541;28;791;-46
2021/01/05 11:27:14;;;;;;;;;;;;;;;21.10;42.76;100385.97;5057068;28;816;-48
2021/01/05 11:29:40;;;;;;;;;;;;;;;21.08;42.80;100376.34;5056866;28;740;-46
2021/01/05 11:32:10;;;;;;;;;;;;;;;20.91;43.21;100377.03;5056677;28;1981;-45
2021/01/05 11:34:36;;;;;;;;;;;;;;;21.17;42.69;100374.47;5056785;28;842;-46
2021/01/05 11:37:08;;;;;;;;;;;;;;;21.20;42.68;100379.38;5056423;28;990;-48
2021/01/05 11:39:34;;;;;;;;;;;;;;;21.48;41.86;100377.28;5056695;28;721;-53
2021/01/05 11:41:59;;;;;;;;;;;;;;;21.66;41.50;100380.19;5056839;28;867;-59
2021/01/05 11:44:25;;;;;;;;;;;;;;;21.64;41.39;100385.19;5056406;28;844;-50
2021/01/05 11:46:50;;;;;;;;;;;;;;;21.76;41.27;100390.16;5061794;28;1096;-49
2021/01/05 11:49:15;;;;;;;;;;;;;;;21.74;41.14;100393.25;5076519;28;1090;-47
2021/01/05 11:51:41;;;;;;;;;;;;;;;21.31;42.38;100408.41;5071299;28;1979;-45
2021/01/05 11:54:06;;;;;;;;;;;;;;;21.08;42.73;100404.00;5056172;28;851;-48
2021/01/05 11:56:32;;;;;;;;;;;;;;;20.64;44.01;100411.88;5056235;28;835;-48
2021/01/05 11:58:58;;;;;;;;;;;;;;;21.17;42.71;100408.47;5056456;28;550;-47
2021/01/05 12:01:24;;;;;;;;;;;;;;;21.41;42.03;100417.59;5066128;28;902;-46
2021/01/05 12:03:49;;;;;;;;;;;;;;;21.48;42.02;100407.69;5075521;28;880;-45
2021/01/05 12:06:15;;;;;;;;;;;;;;;21.65;41.55;100418.09;5070384;28;958;-46
2021/01/05 12:08:41;;;;;;;;;;;;;;;21.77;41.07;100428.59;5073329;28;942;-46
2021/01/05 12:11:07;;;;;;;;;;;;;;;21.34;42.21;100431.84;5056381;28;1177;-49
2021/01/05 12:13:32;;;;;;;;;;;;;;;21.27;42.15;100442.53;5075460;28;1963;-47
2021/01/05 12:15:58;;;;;;;;;;;;;;;21.40;41.96;100443.59;5075241;28;863;-48
2021/01/05 12:18:23;;;;;;;;;;;;;;;21.63;41.50;100458.25;5075576;28;823;-48
2021/01/05 12:20:49;;;;;;;;;;;;;;;21.65;41.37;100453.25;5075986;28;851;-44
2021/01/05 12:23:14;;;;;;;;;;;;;;;21.69;41.38;100465.31;5057577;28;951;-48
2021/01/05 12:25:39;;;;;;;;;;;;;;;21.56;41.54;100463.44;5056036;28;744;-44
2021/01/05 12:28:05;;;;;;;;;;;;;;;21.31;42.18;100468.44;5058975;28;795;-45
2021/01/05 12:30:31;;;;;;;;;;;;;;;21.08;42.86;100476.69;5064500;28;936;-44
2021/01/05 12:32:56;;;;;;;;;;;;;;;21.25;42.41;100472.44;5079106;28;1909;-42
2021/01/05 12:35:22;;;;;;;;;;;;;;;21.44;41.92;100475.84;5079702;28;792;-46
2021/01/05 12:37:47;;;;;;;;;;;;;;;21.11;42.69;100484.38;5065732;28;970;-45
2021/01/05 12:40:13;;;;;;;;;;;;;;;21.37;42.06;100483.78;5059256;28;748;-44
2021/01/05 12:42:39;;;;;;;;;;;;;;;21.63;41.47;100485.94;5059594;28;743;-45
2021/01/05 12:45:05;;;;;;;;;;;;;;;21.69;41.28;100502.09;5059724;28;756;-47
2021/01/05 12:47:30;;;;;;;;;;;;;;;21.70;41.31;100502.94;5070469;28;1084;-48
2021/01/05 12:49:56;;;;;;;;;;;;;;;21.40;41.72;100508.03;5080058;28;1020;-50
2021/01/05 12:52:22;;;;;;;;;;;;;;;21.11;42.54;100512.03;5069233;28;1913;-47
2021/01/05 12:54:47;;;;;;;;;;;;;;;21.09;42.57;100508.75;5059275;28;747;-46
2021/01/05 12:57:13;;;;;;;;;;;;;;;21.18;42.35;100509.66;5059527;28;800;-45
2021/01/05 12:59:41;;;;;;;;;;;;;;;21.40;41.94;100519.09;5059641;28;826;-49
2021/01/05 13:02:26;;;;;;;;;;;;;;;21.50;41.59;100516.09;5059312;28;842;-46
2021/01/05 13:04:52;;;;;;;;;;;;;;;21.50;41.69;100516.09;5058985;28;1081;-47
2021/01/05 13:07:18;;;;;;;;;;;;;;;21.46;41.82;100512.34;5058915;28;955;-45